sensor_id;sensor_type;location;lat;lon;timestamp;temperature;humidity
53152;DHT22;39234;53.158;6.322;2022-08-19T00:01:50;15.20;99.90
53152;DHT22;39234;53.158;6.322;2022-08-19T00:04:18;14.00;99.90
53152;DHT22;39234;53.158;6.322;2022-08-19T00:06:45;14.50;99.90
53152;DHT22;39234;53.158;6.322;2022-08-19T00:09:13;13.90;99.90
53152;DHT22;39234;53.158;6.322;2022-08-19T00:11:40;14.20;99.90
53152;DHT22;39234;53.158;6.322;2022-08-19T00:14:08;14.40;99.90
53152;DHT22;39234;53.158;6.322;2022-08-19T00:16:36;13.60;99.90
53152;DHT22;39234;53.158;6.322;2022-08-19T00:19:02;13.80;99.90
53152;DHT22;39234;53.158;6.322;2022-08-19T00:21:28;14.00;99.90
53152;DHT22;39234;53.158;6.322;2022-08-19T00:23:56;13.70;99.90
53152;DHT22;39234;53.158;6.322;2022-08-19T00:26:26;13.70;99.90
53152;DHT22;39234;53.158;6.322;2022-08-19T00:28:52;13.70;99.90
53152;DHT22;39234;53.158;6.322;2022-08-19T00:31:18;13.70;99.90
53152;DHT22;39234;53.158;6.322;2022-08-19T00:33:44;15.10;99.90
53152;DHT22;39234;53.158;6.322;2022-08-19T00:36:10;13.70;99.90
53152;DHT22;39234;53.158;6.322;2022-08-19T00:38:38;13.50;99.90
53152;DHT22;39234;53.158;6.322;2022-08-19T00:41:06;13.80;99.90
53152;DHT22;39234;53.158;6.322;2022-08-19T00:43:32;13.40;99.90
53152;DHT22;39234;53.158;6.322;2022-08-19T00:45:58;13.40;99.90
53152;DHT22;39234;53.158;6.322;2022-08-19T00:48:24;15.30;99.90
53152;DHT22;39234;53.158;6.322;2022-08-19T00:50:52;15.40;99.90
53152;DHT22;39234;53.158;6.322;2022-08-19T00:53:27;13.40;99.90
53152;DHT22;39234;53.158;6.322;2022-08-19T00:55:56;13.10;99.90
53152;DHT22;39234;53.158;6.322;2022-08-19T00:58:27;14.40;99.90
53152;DHT22;39234;53.158;6.322;2022-08-19T01:00:54;13.40;99.90
53152;DHT22;39234;53.158;6.322;2022-08-19T01:03:21;13.20;99.90
53152;DHT22;39234;53.158;6.322;2022-08-19T01:05:49;13.10;99.90
53152;DHT22;39234;53.158;6.322;2022-08-19T01:08:17;14.10;99.90
53152;DHT22;39234;53.158;6.322;2022-08-19T01:10:51;15.30;99.90
53152;DHT22;39234;53.158;6.322;2022-08-19T01:13:20;13.10;99.90
53152;DHT22;39234;53.158;6.322;2022-08-19T01:15:50;12.70;99.90
53152;DHT22;39234;53.158;6.322;2022-08-19T01:18:19;13.80;99.90
53152;DHT22;39234;53.158;6.322;2022-08-19T01:20:47;13.30;99.90
53152;DHT22;39234;53.158;6.322;2022-08-19T01:23:13;12.70;99.90
53152;DHT22;39234;53.158;6.322;2022-08-19T01:25:47;12.90;99.90
53152;DHT22;39234;53.158;6.322;2022-08-19T01:28:25;12.80;99.90
53152;DHT22;39234;53.158;6.322;2022-08-19T01:30:52;12.70;99.90
53152;DHT22;39234;53.158;6.322;2022-08-19T01:33:20;13.90;99.90
53152;DHT22;39234;53.158;6.322;2022-08-19T01:35:46;13.90;99.90
53152;DHT22;39234;53.158;6.322;2022-08-19T01:38:22;12.50;99.90
53152;DHT22;39234;53.158;6.322;2022-08-19T01:40:48;12.60;99.90
53152;DHT22;39234;53.158;6.322;2022-08-19T01:43:14;12.60;99.90
53152;DHT22;39234;53.158;6.322;2022-08-19T01:45:41;14.50;99.90
53152;DHT22;39234;53.158;6.322;2022-08-19T01:48:07;12.70;99.90
53152;DHT22;39234;53.158;6.322;2022-08-19T01:50:34;12.60;99.90
53152;DHT22;39234;53.158;6.322;2022-08-19T01:53:02;13.40;99.90
53152;DHT22;39234;53.158;6.322;2022-08-19T01:55:29;13.40;99.90
53152;DHT22;39234;53.158;6.322;2022-08-19T01:57:59;12.50;99.90
53152;DHT22;39234;53.158;6.322;2022-08-19T02:00:28;13.20;99.90
53152;DHT22;39234;53.158;6.322;2022-08-19T02:02:56;13.80;99.90
53152;DHT22;39234;53.158;6.322;2022-08-19T02:05:22;12.90;99.90
53152;DHT22;39234;53.158;6.322;2022-08-19T02:07:48;12.40;99.90
53152;DHT22;39234;53.158;6.322;2022-08-19T02:10:18;13.60;99.90
53152;DHT22;39234;53.158;6.322;2022-08-19T02:12:44;12.40;99.90
53152;DHT22;39234;53.158;6.322;2022-08-19T02:15:11;12.60;99.90
53152;DHT22;39234;53.158;6.322;2022-08-19T02:17:39;13.50;99.90
53152;DHT22;39234;53.158;6.322;2022-08-19T02:20:07;12.50;99.90
53152;DHT22;39234;53.158;6.322;2022-08-19T02:22:33;12.40;99.90
53152;DHT22;39234;53.158;6.322;2022-08-19T02:25:01;12.30;99.90
53152;DHT22;39234;53.158;6.322;2022-08-19T02:27:27;12.30;99.90
53152;DHT22;39234;53.158;6.322;2022-08-19T02:29:53;12.50;99.90
53152;DHT22;39234;53.158;6.322;2022-08-19T02:32:19;13.50;99.90
53152;DHT22;39234;53.158;6.322;2022-08-19T02:34:47;12.60;99.90
53152;DHT22;39234;53.158;6.322;2022-08-19T02:37:13;12.50;99.90
53152;DHT22;39234;53.158;6.322;2022-08-19T02:39:58;13.70;99.90
53152;DHT22;39234;53.158;6.322;2022-08-19T02:42:24;12.30;99.90
53152;DHT22;39234;53.158;6.322;2022-08-19T02:44:50;12.40;99.90
53152;DHT22;39234;53.158;6.322;2022-08-19T02:47:17;13.60;99.90
53152;DHT22;39234;53.158;6.322;2022-08-19T02:49:45;12.70;99.90
53152;DHT22;39234;53.158;6.322;2022-08-19T02:52:11;14.50;99.90
53152;DHT22;39234;53.158;6.322;2022-08-19T02:54:37;12.40;99.90
53152;DHT22;39234;53.158;6.322;2022-08-19T02:57:05;12.40;99.90
53152;DHT22;39234;53.158;6.322;2022-08-19T02:59:32;12.20;99.90
53152;DHT22;39234;53.158;6.322;2022-08-19T03:01:58;12.70;99.90
53152;DHT22;39234;53.158;6.322;2022-08-19T03:04:25;13.00;99.90
53152;DHT22;39234;53.158;6.322;2022-08-19T03:06:51;12.20;99.90
53152;DHT22;39234;53.158;6.322;2022-08-19T03:09:18;12.20;99.90
53152;DHT22;39234;53.158;6.322;2022-08-19T03:11:45;13.20;99.90
53152;DHT22;39234;53.158;6.322;2022-08-19T03:14:12;12.10;99.90
53152;DHT22;39234;53.158;6.322;2022-08-19T03:16:46;12.20;99.90
53152;DHT22;39234;53.158;6.322;2022-08-19T03:19:15;12.10;99.90
53152;DHT22;39234;53.158;6.322;2022-08-19T03:21:43;12.80;99.90
53152;DHT22;39234;53.158;6.322;2022-08-19T03:24:13;13.40;99.90
53152;DHT22;39234;53.158;6.322;2022-08-19T03:26:44;12.00;99.90
53152;DHT22;39234;53.158;6.322;2022-08-19T03:29:10;12.40;99.90
53152;DHT22;39234;53.158;6.322;2022-08-19T03:31:39;12.70;99.90
53152;DHT22;39234;53.158;6.322;2022-08-19T03:34:05;12.10;99.90
53152;DHT22;39234;53.158;6.322;2022-08-19T03:36:31;13.20;99.90
53152;DHT22;39234;53.158;6.322;2022-08-19T03:38:59;12.10;99.90
53152;DHT22;39234;53.158;6.322;2022-08-19T03:41:31;13.40;99.90
53152;DHT22;39234;53.158;6.322;2022-08-19T03:43:57;11.80;99.90
53152;DHT22;39234;53.158;6.322;2022-08-19T03:46:27;12.30;99.90
53152;DHT22;39234;53.158;6.322;2022-08-19T03:48:55;12.00;99.90
53152;DHT22;39234;53.158;6.322;2022-08-19T03:51:24;12.00;99.90
53152;DHT22;39234;53.158;6.322;2022-08-19T03:53:51;12.10;99.90
53152;DHT22;39234;53.158;6.322;2022-08-19T03:56:17;12.50;99.90
53152;DHT22;39234;53.158;6.322;2022-08-19T03:58:43;11.90;99.90
53152;DHT22;39234;53.158;6.322;2022-08-19T04:01:12;13.90;99.90
53152;DHT22;39234;53.158;6.322;2022-08-19T04:03:38;12.00;99.90
53152;DHT22;39234;53.158;6.322;2022-08-19T04:06:31;12.10;99.90
53152;DHT22;39234;53.158;6.322;2022-08-19T04:08:59;11.70;99.90
53152;DHT22;39234;53.158;6.322;2022-08-19T04:11:34;13.10;99.90
53152;DHT22;39234;53.158;6.322;2022-08-19T04:14:00;12.40;99.90
53152;DHT22;39234;53.158;6.322;2022-08-19T04:16:27;11.90;99.90
53152;DHT22;39234;53.158;6.322;2022-08-19T04:18:59;11.80;99.90
53152;DHT22;39234;53.158;6.322;2022-08-19T04:21:27;11.90;99.90
53152;DHT22;39234;53.158;6.322;2022-08-19T04:23:53;12.40;99.90
53152;DHT22;39234;53.158;6.322;2022-08-19T04:26:23;12.80;99.90
53152;DHT22;39234;53.158;6.322;2022-08-19T04:28:49;12.00;99.90
53152;DHT22;39234;53.158;6.322;2022-08-19T04:31:22;12.10;99.90
53152;DHT22;39234;53.158;6.322;2022-08-19T04:33:53;11.90;99.90
53152;DHT22;39234;53.158;6.322;2022-08-19T04:36:28;12.10;99.90
53152;DHT22;39234;53.158;6.322;2022-08-19T04:38:57;12.10;99.90
53152;DHT22;39234;53.158;6.322;2022-08-19T04:41:24;13.10;99.90
53152;DHT22;39234;53.158;6.322;2022-08-19T04:44:09;12.00;99.90
53152;DHT22;39234;53.158;6.322;2022-08-19T04:46:35;12.10;99.90
53152;DHT22;39234;53.158;6.322;2022-08-19T04:49:04;12.10;99.90
53152;DHT22;39234;53.158;6.322;2022-08-19T04:51:32;11.70;99.90
53152;DHT22;39234;53.158;6.322;2022-08-19T04:53:59;12.00;99.90
53152;DHT22;39234;53.158;6.322;2022-08-19T04:56:26;13.30;99.90
53152;DHT22;39234;53.158;6.322;2022-08-19T04:58:55;13.10;99.90
53152;DHT22;39234;53.158;6.322;2022-08-19T05:01:23;12.20;99.90
53152;DHT22;39234;53.158;6.322;2022-08-19T05:03:49;13.00;99.90
53152;DHT22;39234;53.158;6.322;2022-08-19T05:06:17;12.20;99.90
53152;DHT22;39234;53.158;6.322;2022-08-19T05:08:44;12.80;99.90
53152;DHT22;39234;53.158;6.322;2022-08-19T05:11:13;12.40;99.90
53152;DHT22;39234;53.158;6.322;2022-08-19T05:13:41;12.50;99.90
53152;DHT22;39234;53.158;6.322;2022-08-19T05:16:09;12.90;99.90
53152;DHT22;39234;53.158;6.322;2022-08-19T05:18:35;12.80;99.90
53152;DHT22;39234;53.158;6.322;2022-08-19T05:21:21;12.60;99.90
53152;DHT22;39234;53.158;6.322;2022-08-19T05:24:06;12.80;99.90
53152;DHT22;39234;53.158;6.322;2022-08-19T05:26:37;12.60;99.90
53152;DHT22;39234;53.158;6.322;2022-08-19T05:29:03;12.80;99.90
53152;DHT22;39234;53.158;6.322;2022-08-19T05:31:30;13.10;99.90
53152;DHT22;39234;53.158;6.322;2022-08-19T05:33:56;13.10;99.90
53152;DHT22;39234;53.158;6.322;2022-08-19T05:36:27;13.30;99.90
53152;DHT22;39234;53.158;6.322;2022-08-19T05:38:54;13.40;99.90
53152;DHT22;39234;53.158;6.322;2022-08-19T05:41:21;14.70;99.90
53152;DHT22;39234;53.158;6.322;2022-08-19T05:43:55;13.80;99.90
53152;DHT22;39234;53.158;6.322;2022-08-19T05:46:21;15.50;99.90
53152;DHT22;39234;53.158;6.322;2022-08-19T05:48:47;15.60;99.90
53152;DHT22;39234;53.158;6.322;2022-08-19T05:51:14;14.90;99.90
53152;DHT22;39234;53.158;6.322;2022-08-19T05:53:39;15.40;99.90
53152;DHT22;39234;53.158;6.322;2022-08-19T05:56:10;14.60;99.90
53152;DHT22;39234;53.158;6.322;2022-08-19T05:58:37;14.60;99.90
53152;DHT22;39234;53.158;6.322;2022-08-19T06:01:09;15.20;99.90
53152;DHT22;39234;53.158;6.322;2022-08-19T06:03:35;15.20;99.90
53152;DHT22;39234;53.158;6.322;2022-08-19T06:06:03;15.70;99.90
53152;DHT22;39234;53.158;6.322;2022-08-19T06:08:31;15.80;99.90
53152;DHT22;39234;53.158;6.322;2022-08-19T06:11:13;16.20;99.90
53152;DHT22;39234;53.158;6.322;2022-08-19T06:13:42;17.10;99.90
53152;DHT22;39234;53.158;6.322;2022-08-19T06:16:08;18.40;99.90
53152;DHT22;39234;53.158;6.322;2022-08-19T06:18:33;19.30;99.90
53152;DHT22;39234;53.158;6.322;2022-08-19T06:20:59;19.40;99.90
53152;DHT22;39234;53.158;6.322;2022-08-19T06:23:29;19.60;99.90
53152;DHT22;39234;53.158;6.322;2022-08-19T06:25:56;19.50;99.90
53152;DHT22;39234;53.158;6.322;2022-08-19T06:28:23;19.40;99.90
53152;DHT22;39234;53.158;6.322;2022-08-19T06:30:49;19.40;99.90
53152;DHT22;39234;53.158;6.322;2022-08-19T06:33:16;21.40;99.90
53152;DHT22;39234;53.158;6.322;2022-08-19T06:35:44;19.10;99.90
53152;DHT22;39234;53.158;6.322;2022-08-19T06:38:11;19.40;99.90
53152;DHT22;39234;53.158;6.322;2022-08-19T06:40:37;19.60;99.90
53152;DHT22;39234;53.158;6.322;2022-08-19T06:43:05;21.50;99.90
53152;DHT22;39234;53.158;6.322;2022-08-19T06:45:31;21.80;99.90
53152;DHT22;39234;53.158;6.322;2022-08-19T06:47:57;19.70;99.90
53152;DHT22;39234;53.158;6.322;2022-08-19T06:50:25;21.80;99.90
53152;DHT22;39234;53.158;6.322;2022-08-19T06:52:51;19.60;99.90
53152;DHT22;39234;53.158;6.322;2022-08-19T06:55:17;20.40;99.90
53152;DHT22;39234;53.158;6.322;2022-08-19T06:57:42;21.40;99.90
53152;DHT22;39234;53.158;6.322;2022-08-19T07:00:11;22.70;99.90
53152;DHT22;39234;53.158;6.322;2022-08-19T07:02:43;23.60;99.90
53152;DHT22;39234;53.158;6.322;2022-08-19T07:05:09;24.30;99.90
53152;DHT22;39234;53.158;6.322;2022-08-19T07:07:35;25.40;99.90
53152;DHT22;39234;53.158;6.322;2022-08-19T07:10:01;26.10;99.90
53152;DHT22;39234;53.158;6.322;2022-08-19T07:12:30;26.40;99.90
53152;DHT22;39234;53.158;6.322;2022-08-19T07:15:00;26.80;99.90
53152;DHT22;39234;53.158;6.322;2022-08-19T07:17:26;27.20;99.90
53152;DHT22;39234;53.158;6.322;2022-08-19T07:19:52;27.80;99.90
53152;DHT22;39234;53.158;6.322;2022-08-19T07:22:19;28.30;99.90
53152;DHT22;39234;53.158;6.322;2022-08-19T07:24:50;28.70;99.90
53152;DHT22;39234;53.158;6.322;2022-08-19T07:27:16;28.80;99.90
53152;DHT22;39234;53.158;6.322;2022-08-19T07:29:44;29.20;99.90
53152;DHT22;39234;53.158;6.322;2022-08-19T07:32:11;29.40;99.90
53152;DHT22;39234;53.158;6.322;2022-08-19T07:34:37;29.60;99.90
53152;DHT22;39234;53.158;6.322;2022-08-19T07:37:05;29.60;99.90
53152;DHT22;39234;53.158;6.322;2022-08-19T07:39:34;29.40;99.90
53152;DHT22;39234;53.158;6.322;2022-08-19T07:42:03;28.80;99.90
53152;DHT22;39234;53.158;6.322;2022-08-19T07:44:31;28.60;99.90
53152;DHT22;39234;53.158;6.322;2022-08-19T07:46:59;28.10;99.90
53152;DHT22;39234;53.158;6.322;2022-08-19T07:49:25;27.50;99.90
53152;DHT22;39234;53.158;6.322;2022-08-19T07:51:55;25.70;99.90
53152;DHT22;39234;53.158;6.322;2022-08-19T07:54:24;26.10;99.90
53152;DHT22;39234;53.158;6.322;2022-08-19T07:56:50;25.70;99.90
53152;DHT22;39234;53.158;6.322;2022-08-19T07:59:17;25.40;99.90
53152;DHT22;39234;53.158;6.322;2022-08-19T08:01:43;25.00;99.90
53152;DHT22;39234;53.158;6.322;2022-08-19T08:04:10;24.70;99.90
53152;DHT22;39234;53.158;6.322;2022-08-19T08:06:55;25.10;99.90
53152;DHT22;39234;53.158;6.322;2022-08-19T08:09:50;23.90;99.90
53152;DHT22;39234;53.158;6.322;2022-08-19T08:12:23;23.70;99.90
53152;DHT22;39234;53.158;6.322;2022-08-19T08:14:53;23.50;99.90
53152;DHT22;39234;53.158;6.322;2022-08-19T08:17:21;25.50;99.90
53152;DHT22;39234;53.158;6.322;2022-08-19T08:19:49;23.30;99.90
53152;DHT22;39234;53.158;6.322;2022-08-19T08:22:18;23.20;99.90
53152;DHT22;39234;53.158;6.322;2022-08-19T08:25:15;23.00;99.90
53152;DHT22;39234;53.158;6.322;2022-08-19T08:27:43;23.10;99.90
53152;DHT22;39234;53.158;6.322;2022-08-19T08:30:12;23.10;99.90
53152;DHT22;39234;53.158;6.322;2022-08-19T08:32:41;23.10;99.90
53152;DHT22;39234;53.158;6.322;2022-08-19T08:35:11;23.10;99.90
53152;DHT22;39234;53.158;6.322;2022-08-19T08:37:37;23.00;99.90
53152;DHT22;39234;53.158;6.322;2022-08-19T08:40:14;22.70;99.90
53152;DHT22;39234;53.158;6.322;2022-08-19T08:42:50;22.70;99.90
53152;DHT22;39234;53.158;6.322;2022-08-19T08:45:19;23.90;99.90
53152;DHT22;39234;53.158;6.322;2022-08-19T08:47:50;22.60;99.90
53152;DHT22;39234;53.158;6.322;2022-08-19T08:50:25;22.80;99.90
53152;DHT22;39234;53.158;6.322;2022-08-19T08:52:55;22.70;99.90
53152;DHT22;39234;53.158;6.322;2022-08-19T08:55:25;22.70;99.90
53152;DHT22;39234;53.158;6.322;2022-08-19T09:00:38;22.70;99.90
53152;DHT22;39234;53.158;6.322;2022-08-19T09:03:10;22.50;99.90
53152;DHT22;39234;53.158;6.322;2022-08-19T09:06:01;22.60;99.90
53152;DHT22;39234;53.158;6.322;2022-08-19T09:08:34;22.50;99.90
53152;DHT22;39234;53.158;6.322;2022-08-19T09:11:06;22.90;99.90
53152;DHT22;39234;53.158;6.322;2022-08-19T09:13:56;22.80;99.90
53152;DHT22;39234;53.158;6.322;2022-08-19T09:16:24;22.80;99.90
53152;DHT22;39234;53.158;6.322;2022-08-19T09:18:55;22.70;99.90
53152;DHT22;39234;53.158;6.322;2022-08-19T09:21:25;22.80;99.90
53152;DHT22;39234;53.158;6.322;2022-08-19T09:23:52;22.80;99.90
53152;DHT22;39234;53.158;6.322;2022-08-19T09:26:20;23.00;99.90
53152;DHT22;39234;53.158;6.322;2022-08-19T09:28:49;23.00;99.90
53152;DHT22;39234;53.158;6.322;2022-08-19T09:31:24;23.10;99.90
53152;DHT22;39234;53.158;6.322;2022-08-19T09:33:50;23.10;99.90
53152;DHT22;39234;53.158;6.322;2022-08-19T09:36:19;24.30;99.90
53152;DHT22;39234;53.158;6.322;2022-08-19T09:38:45;23.40;99.90
53152;DHT22;39234;53.158;6.322;2022-08-19T09:41:16;23.70;99.90
53152;DHT22;39234;53.158;6.322;2022-08-19T09:43:45;23.90;99.90
53152;DHT22;39234;53.158;6.322;2022-08-19T09:46:11;23.90;99.90
53152;DHT22;39234;53.158;6.322;2022-08-19T09:48:40;24.00;99.90
53152;DHT22;39234;53.158;6.322;2022-08-19T09:51:12;24.20;99.90
53152;DHT22;39234;53.158;6.322;2022-08-19T09:53:43;24.20;99.90
53152;DHT22;39234;53.158;6.322;2022-08-19T09:56:10;25.80;99.90
53152;DHT22;39234;53.158;6.322;2022-08-19T09:58:36;24.50;99.90
53152;DHT22;39234;53.158;6.322;2022-08-19T10:01:05;24.50;99.90
53152;DHT22;39234;53.158;6.322;2022-08-19T10:03:33;24.80;99.90
53152;DHT22;39234;53.158;6.322;2022-08-19T10:06:00;25.10;99.90
53152;DHT22;39234;53.158;6.322;2022-08-19T10:08:30;25.20;99.90
53152;DHT22;39234;53.158;6.322;2022-08-19T10:10:57;25.40;99.90
53152;DHT22;39234;53.158;6.322;2022-08-19T10:13:27;25.60;99.90
53152;DHT22;39234;53.158;6.322;2022-08-19T10:15:55;25.50;99.90
53152;DHT22;39234;53.158;6.322;2022-08-19T10:18:22;25.50;99.90
53152;DHT22;39234;53.158;6.322;2022-08-19T10:20:50;25.60;99.90
53152;DHT22;39234;53.158;6.322;2022-08-19T10:23:19;25.60;99.90
53152;DHT22;39234;53.158;6.322;2022-08-19T10:25:45;25.40;99.90
53152;DHT22;39234;53.158;6.322;2022-08-19T10:28:11;25.60;99.90
53152;DHT22;39234;53.158;6.322;2022-08-19T10:30:39;25.90;99.90
53152;DHT22;39234;53.158;6.322;2022-08-19T10:33:05;25.70;99.90
53152;DHT22;39234;53.158;6.322;2022-08-19T10:35:31;25.70;99.90
53152;DHT22;39234;53.158;6.322;2022-08-19T10:46:01;26.70;99.90
53152;DHT22;39234;53.158;6.322;2022-08-19T10:48:27;26.90;99.90
53152;DHT22;39234;53.158;6.322;2022-08-19T10:50:53;26.90;99.90
53152;DHT22;39234;53.158;6.322;2022-08-19T11:17:25;28.00;99.90
53152;DHT22;39234;53.158;6.322;2022-08-19T11:19:51;27.60;99.90
53152;DHT22;39234;53.158;6.322;2022-08-19T11:22:20;27.80;99.90
53152;DHT22;39234;53.158;6.322;2022-08-19T11:24:48;30.30;99.90
53152;DHT22;39234;53.158;6.322;2022-08-19T11:27:20;27.50;99.90
53152;DHT22;39234;53.158;6.322;2022-08-19T11:29:51;27.20;99.90
53152;DHT22;39234;53.158;6.322;2022-08-19T11:38:55;28.80;99.90
53152;DHT22;39234;53.158;6.322;2022-08-19T11:47:52;28.00;99.90
53152;DHT22;39234;53.158;6.322;2022-08-19T11:50:34;28.60;99.90
53152;DHT22;39234;53.158;6.322;2022-08-19T11:53:14;27.60;99.90
53152;DHT22;39234;53.158;6.322;2022-08-19T11:55:41;28.20;99.90
53152;DHT22;39234;53.158;6.322;2022-08-19T11:58:17;27.50;99.90
53152;DHT22;39234;53.158;6.322;2022-08-19T12:00:44;27.20;99.90
53152;DHT22;39234;53.158;6.322;2022-08-19T12:03:12;27.10;99.90
53152;DHT22;39234;53.158;6.322;2022-08-19T12:05:39;26.80;99.90
53152;DHT22;39234;53.158;6.322;2022-08-19T12:08:07;26.80;99.90
53152;DHT22;39234;53.158;6.322;2022-08-19T12:10:34;26.40;99.90
53152;DHT22;39234;53.158;6.322;2022-08-19T12:13:00;26.00;99.90
53152;DHT22;39234;53.158;6.322;2022-08-19T12:15:28;25.90;99.90
53152;DHT22;39234;53.158;6.322;2022-08-19T12:17:57;25.90;99.90
53152;DHT22;39234;53.158;6.322;2022-08-19T12:20:23;26.00;99.90
53152;DHT22;39234;53.158;6.322;2022-08-19T12:22:51;25.40;99.90
53152;DHT22;39234;53.158;6.322;2022-08-19T12:25:17;25.30;99.90
53152;DHT22;39234;53.158;6.322;2022-08-19T12:27:42;25.10;99.90
53152;DHT22;39234;53.158;6.322;2022-08-19T12:30:12;25.20;99.90
53152;DHT22;39234;53.158;6.322;2022-08-19T12:32:43;24.80;99.90
53152;DHT22;39234;53.158;6.322;2022-08-19T12:35:11;25.20;99.90
53152;DHT22;39234;53.158;6.322;2022-08-19T12:37:38;24.80;99.90
53152;DHT22;39234;53.158;6.322;2022-08-19T12:40:04;24.50;99.90
53152;DHT22;39234;53.158;6.322;2022-08-19T12:42:30;24.80;99.90
53152;DHT22;39234;53.158;6.322;2022-08-19T12:44:59;25.60;99.90
53152;DHT22;39234;53.158;6.322;2022-08-19T12:47:24;24.30;99.90
53152;DHT22;39234;53.158;6.322;2022-08-19T12:49:52;25.00;99.90
53152;DHT22;39234;53.158;6.322;2022-08-19T12:52:17;24.80;99.90
53152;DHT22;39234;53.158;6.322;2022-08-19T12:54:46;24.70;99.90
53152;DHT22;39234;53.158;6.322;2022-08-19T12:57:12;24.70;99.90
53152;DHT22;39234;53.158;6.322;2022-08-19T12:59:40;24.70;99.90
53152;DHT22;39234;53.158;6.322;2022-08-19T13:02:07;24.70;99.90
53152;DHT22;39234;53.158;6.322;2022-08-19T13:15:42;24.90;99.90
53152;DHT22;39234;53.158;6.322;2022-08-19T13:30:05;23.50;99.90
53152;DHT22;39234;53.158;6.322;2022-08-19T13:41:59;23.40;99.90
53152;DHT22;39234;53.158;6.322;2022-08-19T13:44:26;23.60;99.90
53152;DHT22;39234;53.158;6.322;2022-08-19T13:47:00;23.50;99.90
53152;DHT22;39234;53.158;6.322;2022-08-19T13:49:28;23.80;99.90
53152;DHT22;39234;53.158;6.322;2022-08-19T13:51:55;23.90;99.90
53152;DHT22;39234;53.158;6.322;2022-08-19T13:54:21;24.30;99.90
53152;DHT22;39234;53.158;6.322;2022-08-19T13:57:13;24.20;99.90
53152;DHT22;39234;53.158;6.322;2022-08-19T13:59:39;24.30;99.90
53152;DHT22;39234;53.158;6.322;2022-08-19T14:02:05;24.40;99.90
53152;DHT22;39234;53.158;6.322;2022-08-19T14:04:30;24.30;99.90
53152;DHT22;39234;53.158;6.322;2022-08-19T14:06:56;24.30;99.90
53152;DHT22;39234;53.158;6.322;2022-08-19T14:09:22;24.40;99.90
53152;DHT22;39234;53.158;6.322;2022-08-19T14:11:48;24.20;99.90
53152;DHT22;39234;53.158;6.322;2022-08-19T14:14:15;24.30;99.90
53152;DHT22;39234;53.158;6.322;2022-08-19T14:16:41;24.10;99.90
53152;DHT22;39234;53.158;6.322;2022-08-19T14:19:07;24.20;99.90
53152;DHT22;39234;53.158;6.322;2022-08-19T14:21:33;24.00;99.90
53152;DHT22;39234;53.158;6.322;2022-08-19T14:24:02;24.00;99.90
53152;DHT22;39234;53.158;6.322;2022-08-19T14:26:27;24.00;99.90
53152;DHT22;39234;53.158;6.322;2022-08-19T14:28:53;23.80;99.90
53152;DHT22;39234;53.158;6.322;2022-08-19T14:31:22;23.80;99.90
53152;DHT22;39234;53.158;6.322;2022-08-19T14:33:49;23.80;99.90
53152;DHT22;39234;53.158;6.322;2022-08-19T14:36:16;23.90;99.90
53152;DHT22;39234;53.158;6.322;2022-08-19T14:38:43;23.90;99.90
53152;DHT22;39234;53.158;6.322;2022-08-19T14:41:13;23.90;99.90
53152;DHT22;39234;53.158;6.322;2022-08-19T14:43:42;23.90;99.90
53152;DHT22;39234;53.158;6.322;2022-08-19T14:46:11;23.90;99.90
53152;DHT22;39234;53.158;6.322;2022-08-19T14:48:38;23.90;99.90
53152;DHT22;39234;53.158;6.322;2022-08-19T14:51:07;23.80;99.90
53152;DHT22;39234;53.158;6.322;2022-08-19T14:53:33;24.10;99.90
53152;DHT22;39234;53.158;6.322;2022-08-19T14:56:00;24.20;99.90
53152;DHT22;39234;53.158;6.322;2022-08-19T14:58:26;24.30;99.90
53152;DHT22;39234;53.158;6.322;2022-08-19T15:00:52;24.30;99.90
53152;DHT22;39234;53.158;6.322;2022-08-19T15:03:18;24.30;99.90
53152;DHT22;39234;53.158;6.322;2022-08-19T15:05:44;24.20;99.90
53152;DHT22;39234;53.158;6.322;2022-08-19T15:08:09;24.00;99.90
53152;DHT22;39234;53.158;6.322;2022-08-19T15:10:37;24.00;99.90
53152;DHT22;39234;53.158;6.322;2022-08-19T15:13:03;24.00;99.90
53152;DHT22;39234;53.158;6.322;2022-08-19T15:15:29;24.20;99.90
53152;DHT22;39234;53.158;6.322;2022-08-19T15:17:55;24.30;99.90
53152;DHT22;39234;53.158;6.322;2022-08-19T15:20:28;24.40;99.90
53152;DHT22;39234;53.158;6.322;2022-08-19T15:22:55;24.50;99.90
53152;DHT22;39234;53.158;6.322;2022-08-19T15:25:21;24.80;99.90
53152;DHT22;39234;53.158;6.322;2022-08-19T15:27:47;25.00;99.90
53152;DHT22;39234;53.158;6.322;2022-08-19T15:30:20;25.00;99.90
53152;DHT22;39234;53.158;6.322;2022-08-19T15:32:46;25.20;99.90
53152;DHT22;39234;53.158;6.322;2022-08-19T15:35:12;25.20;99.90
53152;DHT22;39234;53.158;6.322;2022-08-19T15:37:38;25.10;99.90
53152;DHT22;39234;53.158;6.322;2022-08-19T15:40:05;25.10;99.90
53152;DHT22;39234;53.158;6.322;2022-08-19T15:42:38;25.00;99.90
53152;DHT22;39234;53.158;6.322;2022-08-19T15:45:08;24.90;99.90
53152;DHT22;39234;53.158;6.322;2022-08-19T15:47:35;25.20;99.90
53152;DHT22;39234;53.158;6.322;2022-08-19T15:50:09;24.70;99.90
53152;DHT22;39234;53.158;6.322;2022-08-19T15:52:35;24.70;99.90
53152;DHT22;39234;53.158;6.322;2022-08-19T15:55:01;24.90;99.90
53152;DHT22;39234;53.158;6.322;2022-08-19T15:57:29;24.90;99.90
53152;DHT22;39234;53.158;6.322;2022-08-19T15:59:54;24.80;99.90
53152;DHT22;39234;53.158;6.322;2022-08-19T16:02:39;24.70;99.90
53152;DHT22;39234;53.158;6.322;2022-08-19T16:05:25;24.50;99.90
53152;DHT22;39234;53.158;6.322;2022-08-19T16:08:10;24.50;99.90
53152;DHT22;39234;53.158;6.322;2022-08-19T16:10:37;24.30;99.90
53152;DHT22;39234;53.158;6.322;2022-08-19T16:13:03;24.00;99.90
53152;DHT22;39234;53.158;6.322;2022-08-19T16:15:32;24.20;99.90
53152;DHT22;39234;53.158;6.322;2022-08-19T16:17:58;23.40;99.90
53152;DHT22;39234;53.158;6.322;2022-08-19T16:20:28;24.20;99.90
53152;DHT22;39234;53.158;6.322;2022-08-19T16:22:58;24.30;99.90
53152;DHT22;39234;53.158;6.322;2022-08-19T16:25:24;24.40;99.90
53152;DHT22;39234;53.158;6.322;2022-08-19T16:27:53;24.30;99.90
53152;DHT22;39234;53.158;6.322;2022-08-19T16:30:19;24.30;99.90
53152;DHT22;39234;53.158;6.322;2022-08-19T16:32:45;24.50;99.90
53152;DHT22;39234;53.158;6.322;2022-08-19T16:35:11;24.30;99.90
53152;DHT22;39234;53.158;6.322;2022-08-19T16:37:37;24.40;99.90
53152;DHT22;39234;53.158;6.322;2022-08-19T16:40:03;24.50;99.90
53152;DHT22;39234;53.158;6.322;2022-08-19T16:42:29;24.30;99.90
53152;DHT22;39234;53.158;6.322;2022-08-19T16:44:55;24.20;99.90
53152;DHT22;39234;53.158;6.322;2022-08-19T16:47:22;24.40;99.90
53152;DHT22;39234;53.158;6.322;2022-08-19T16:49:47;24.30;99.90
53152;DHT22;39234;53.158;6.322;2022-08-19T16:52:13;24.10;99.90
53152;DHT22;39234;53.158;6.322;2022-08-19T16:54:41;24.30;99.90
53152;DHT22;39234;53.158;6.322;2022-08-19T16:57:06;24.20;99.90
53152;DHT22;39234;53.158;6.322;2022-08-19T16:59:33;24.10;99.90